KLOU/LOU METAR and TAF weather

Enter ICAO airport designator
Station Type Date Time Source
KLOU METAR 2020/03/29 19:53 UTC NOAA

KLOU 291953Z 24016G32KT 10SM CLR 19/04 A2995 RMK AO2 PK WND 23033/1935 SLP138 T01940039


Station Type Date Time Source
KLOU Decoded METAR 2020/03/29 19:53 UTC NOAA

BOWMAN FIELD, KY, United States (KLOU) 38-14N 085-40W 164M
Mar 29, 2020 - 03:53 PM EDT / 2020.03.29 1953 UTC
Wind: from the WSW (240 degrees) at 18 MPH (16 KT) gusting to 37 MPH (32 KT):0
Visibility: 10 mile(s):0
Sky conditions: clear
Temperature: 66.9 F (19.4 C)
Dew Point: 39.0 F (3.9 C)
Relative Humidity: 35%
Pressure (altimeter): 29.95 in. Hg (1014 hPa)
ob: KLOU 291953Z 24016G32KT 10SM CLR 19/04 A2995 RMK AO2 PK WND 23033/1935 SLP138 T01940039
cycle: 20

Station Type Date Time Source
KLOU TAF UTC NOAA

Error!

Example: see airport list